Saturday, December 20, 2014
23:43 UTC
  |  Log In   |  Register Free
Airport Search:

Tucson International Airport
(KTUS)

FAA data valid effective November 13, 2014 - January 08, 2015 (unless otherwise noted).

 
 
 
 
 
 
 
 
 
 
 
 
 
 

Current Aviation Weather for Tucson International Airport (KTUS)

The most recent METAR observation for KTUS was updated at: 2121
METAR Summary (Translated METAR)
KTUS
182053Z 36010KT 10SM FEW021 BKN032 14/08 A3010 RMK AO2 SLP173 T01390078 58016
KDMA
182058Z AUTO 33009KT 10SM SCT042 SCT050 BKN065 12/07 A3007 RMK AO2 SLP168 60000 T01180066 57015 $
(4.2 nm NE from KTUS)
KRYN
182045Z 30007KT 10 FEW032 FEW050 BKN065 14/10 A3010
(12 nm NW from KTUS)
TAF Summary (Translated TAF)
KTUS
201731Z 2018/2118 14006KT P6SM SCT250 FM202100 34006KT P6SM BKN250 FM210200 VRB03KT P6SM BKN250 FM210800 15005KT P6SM BKN250
KDMA
(4.2 nm NE from KTUS)
2021/2203 31009KT 9999 FEW250 QNH3005INS BECMG 2101/2102 13006KT 9999 SCT200 QNH3008INS BECMG 2120/2121 31009KT 9999 FEW180 SCT250 QNH3005INS TX17/2122Z TN04/2114Z
  Airport Weather Conditions for KTUS

 Current Weather at TUS
63° F
Fair
Northeast winds at 4.6 mph
TUS NOAA Radar

Pressure: 30.07 in
Humidity: 28%
Wind: Northeast at 4.6 MPH (4 KT)
Dew Point: 28.9°F
Visibility: 10.00 mi


Airport Weather Forecast for KTUS

Translated METAR and TAF for KTUS
Translated METAR for KTUS (2343 UTC 20 December 2014)
found at http://aviationweather.gov/adds/metars/
 
METAR text: KTUS 202253Z 03004KT 10SM CLR 17/M02 A3007 RMK AO2 SLP167 T01721017
Conditions at: KTUS (TUCSON , AZ, US) observed 2253 UTC 20 December 2014
Temperature: 17.2°C (63°F)
Dewpoint: -1.7°C (29°F) [RH = 27%]
Pressure (altimeter): 30.07 inches Hg (1018.4 mb)
[Sea-level pressure: 1016.7 mb]
Winds: from the NNE (30 degrees) at 5 MPH (4 knots; 2.1 m/s)
Visibility: 10 or more miles (16+ km)
Ceiling: at least 12,000 feet AGL
Clouds: sky clear below 12,000 feet AGL
Weather: no significant weather observed at this time
Translated TAF for KTUS
Forecast for: KTUS (TUCSON , AZ, US)
TAF Text: KTUS 202324Z 2100/2124 35006KT P6SM BKN200
Forecast period: 0000 to 0800 UTC 21 December 2014
Forecast type: FROM: standard forecast or significant change
Winds: from the N (350 degrees) at 7 MPH (6 knots; 3.1 m/s)
Visibility: 6 or more miles (10+ km)
Ceiling: 20000 feet AGL
Clouds: broken clouds at 20000 feet AGL
Weather: no significant weather forecast for this period
TAF Text: FM210800 15005KT P6SM BKN250
Forecast period: 0800 UTC 21 December 2014 to 0000 UTC 22 December 2014
Forecast type: FROM: standard forecast or significant change
Winds: from the SSE (150 degrees) at 6 MPH (5 knots; 2.6 m/s)
Visibility: 6 or more miles (10+ km)
Ceiling: 25000 feet AGL
Clouds: broken clouds at 25000 feet AGL
Weather: no significant weather forecast for this period

Find All Airport Services Find A Hotel Find A Rental Car Find A Golf Course Find A Restaurant $100 Hamburger



FBO's on the Field
FBO Company Facility Photos Services Transportation Aviation Fuel Prices: Prices include tax
Catering Weather Repair Courtesy Rental Type 100LL JetA JetA+ MOGAS 8087
 
Bombardier Aerospace

Bombardier Aerospace logo
This FBO has not yet been rated
FS:
Last Updated: Nov-24
Login to update fuel prices
SS:
Contact Bombardier AerospaceMore FBO Information
 
Atlantic Aviation - TUS

Currently rated 4.6 by 2 people
FS:Independent
Last Updated: Dec-19
Login to update fuel prices
SS:
Contact Atlantic Aviation - TUSMore FBO Information
 
Million Air - Tuscon

This FBO has not yet been rated
FS:Independent
Last Updated: Nov-17
Login to update fuel prices
SS:
Contact Million Air - TusconMore FBO Information
 
Million Air Tucson

Currently rated 2.2 by 3 people
FS:Independent
Last Updated: Dec-16
Login to update fuel prices
SS:
Contact Million Air TucsonMore FBO Information
 
Tucson Jet Center

Currently rated 4.4 by 3 people
FS:Independent
Last Updated: Dec-03
Login to update fuel prices
SS:
Contact Tucson Jet CenterMore FBO Information
 
Velocity Air Inc.

This FBO has not yet been rated
FS:Ascent
Last Updated: Nov-21
Login to update fuel prices
SS:
Contact Velocity Air Inc.More FBO Information
 
Add another FBO Facility Photos Catering Weather Repair Courtesy Rental Type 100LL JetA JetA+ MOGAS 8087
Services Transportation Aviation Fuel Prices: Prices include tax


model-print
model-print
model-print
model-print